Portada
METAR-TAF:

METAR-TAF

Aeroports :

Hangzhou, Xina

latitud: 30-14N, longitud: 120-10E, altitud: 43 m

Observació

L'informe es va fer fa 17 minuts, a les 11:00 UTC
Vent 4 kt del Est
Temperatura 17°C
Humitat 77%
Pressió 1024 hPa
Visibilitat 10 km o més
sense núvols per sota de 1500 mi sense presència de cumulonimbus.

METAR: ZSHC 291100Z 08002MPS CAVOK 17/13 Q1024 NOSIG

Hora: 19:17 (11:17 UTC)

Pronòstic

L'informe es va fer fa 8 hores i 1 minuts, a les 03:16 UTC
Pronòstic vàlid del 29 a les 06 UTC al 30 a les 06 UTC
Vent 6 kt del Est/Nord-Est
Visibilitat: 3000 m
Núvols disperses a una alçada de 2000 ft
boirina

TAF: ZSHC 290316Z 2906/3006 07003MPS 3000 BR SCT020 TX22/3006Z TN16/2921Z

Observacions i pronòstics meteorològics de més de 4000 aeroports (METAR i TAF).

Les estacions disponibles són els punts grocs i vermells al mapa.

Posi el ratolí al punt desitjat per veure el nom de l'estació.

Feu clic per veure les observacions i els pronòstics meteorològics.

Per canviar el mapa: feu clic els botons verds amb una creu de color negre per apropar; al botó verd amb un guió per allunyar la imatge; o en les fletxes verdes per a mapes adjacents.


METAR-TAF: